createdAt,value
2016-05-22T00:00:52.516Z,960.6
2016-05-22T00:01:52.518Z,960.66
2016-05-22T00:02:52.521Z,960.63
2016-05-22T00:03:52.524Z,960.57
2016-05-22T00:04:52.542Z,960.59
2016-05-22T00:05:52.545Z,960.55
2016-05-22T00:06:52.563Z,960.52
2016-05-22T00:07:52.565Z,960.49
2016-05-22T00:08:52.585Z,960.53
2016-05-22T00:09:52.587Z,960.48
2016-05-22T00:10:52.605Z,960.48
2016-05-22T00:11:52.609Z,960.45
2016-05-22T00:12:52.642Z,960.45
2016-05-22T00:13:52.628Z,960.39
2016-05-22T00:14:52.648Z,960.42
2016-05-22T00:15:52.650Z,960.42
2016-05-22T00:16:52.653Z,960.37
2016-05-22T00:17:52.670Z,960.36
2016-05-22T00:18:52.673Z,960.35
2016-05-22T00:19:52.692Z,960.34
2016-05-22T00:20:52.710Z,960.3
2016-05-22T00:21:52.713Z,960.29
2016-05-22T00:22:52.716Z,960.26
2016-05-22T00:23:52.718Z,960.27
2016-05-22T00:24:52.737Z,960.25
2016-05-22T00:25:52.739Z,960.25
2016-05-22T00:26:52.757Z,960.21
2016-05-22T00:27:52.839Z,960.24
2016-05-22T00:28:52.779Z,960.19
2016-05-22T00:29:52.782Z,960.19
2016-05-22T00:30:52.799Z,960.18
2016-05-22T00:31:52.802Z,960.16
2016-05-22T00:32:52.821Z,960.12
2016-05-22T00:33:52.823Z,960.1
2016-05-22T00:34:52.841Z,960.11
2016-05-22T00:35:52.844Z,960.11
2016-05-22T00:36:52.847Z,960.09
2016-05-22T00:37:52.865Z,960.06
2016-05-22T00:38:52.868Z,960.05
2016-05-22T00:39:52.871Z,960.03
2016-05-22T00:40:52.889Z,960.01
2016-05-22T00:41:52.907Z,960
2016-05-22T00:42:52.910Z,959.97
2016-05-22T00:43:52.912Z,959.96
2016-05-22T00:44:52.932Z,959.97
2016-05-22T00:45:52.934Z,959.93
2016-05-22T00:46:52.952Z,959.91
2016-05-22T00:47:52.956Z,959.85
2016-05-22T00:48:52.973Z,959.84
2016-05-22T00:49:52.975Z,959.85
2016-05-22T00:50:52.994Z,959.83
2016-05-22T00:51:52.997Z,959.83
2016-05-22T00:52:53.015Z,959.87
2016-05-22T00:53:53.033Z,959.85
2016-05-22T00:54:53.036Z,959.85
2016-05-22T00:55:53.055Z,959.86
2016-05-22T00:56:53.057Z,959.86
2016-05-22T00:57:53.060Z,959.86
2016-05-22T00:58:53.078Z,959.86
2016-05-22T00:59:53.081Z,959.82
2016-05-22T01:00:53.083Z,959.81
2016-05-22T01:01:53.102Z,959.82
2016-05-22T01:02:53.104Z,959.82
2016-05-22T01:03:53.123Z,959.76
2016-05-22T01:04:53.126Z,959.77
2016-05-22T01:05:53.128Z,959.8
2016-05-22T01:06:53.146Z,959.79
2016-05-22T01:07:53.149Z,959.78
2016-05-22T01:08:53.168Z,959.79
2016-05-22T01:09:53.170Z,959.78
2016-05-22T01:10:53.188Z,959.77
2016-05-22T01:11:53.191Z,959.77
2016-05-22T01:12:53.490Z,959.75
2016-05-22T01:13:53.212Z,959.73
2016-05-22T01:14:53.246Z,959.72
2016-05-22T01:15:53.233Z,959.74
2016-05-22T01:16:53.252Z,959.73
2016-05-22T01:17:53.254Z,959.73
2016-05-22T01:18:53.256Z,959.75
2016-05-22T01:19:53.275Z,959.74
2016-05-22T01:20:53.278Z,959.76
2016-05-22T01:21:53.297Z,959.72
2016-05-22T01:22:53.315Z,959.71
2016-05-22T01:23:53.317Z,959.68
2016-05-22T01:24:53.320Z,959.67
2016-05-22T01:25:53.338Z,959.66
2016-05-22T01:26:53.341Z,959.67
2016-05-22T01:27:53.344Z,959.66
2016-05-22T01:28:53.361Z,959.62
2016-05-22T01:29:53.364Z,959.57
2016-05-22T01:30:53.382Z,959.61
2016-05-22T01:31:53.385Z,959.62
2016-05-22T01:32:53.404Z,959.65
2016-05-22T01:33:53.407Z,959.66
2016-05-22T01:34:53.424Z,959.66
2016-05-22T01:35:53.427Z,959.7
2016-05-22T01:36:53.446Z,959.69
2016-05-22T01:37:53.746Z,959.67
2016-05-22T01:38:53.451Z,959.7
2016-05-22T01:39:53.470Z,959.67
2016-05-22T01:40:53.472Z,959.67
2016-05-22T01:41:53.476Z,959.67
2016-05-22T01:42:53.837Z,959.62
2016-05-22T01:43:53.512Z,959.6
2016-05-22T01:44:53.514Z,959.62
2016-05-22T01:45:53.517Z,959.64
2016-05-22T01:46:53.535Z,959.61
2016-05-22T01:47:53.538Z,959.63
2016-05-22T01:48:53.540Z,959.61
2016-05-22T01:49:53.559Z,959.61
2016-05-22T01:50:53.562Z,959.61
2016-05-22T01:51:53.580Z,959.57
2016-05-22T01:52:53.833Z,959.57
2016-05-22T01:53:53.600Z,959.56
2016-05-22T01:54:53.604Z,959.54
2016-05-22T01:55:53.856Z,959.54
2016-05-22T01:56:53.625Z,959.5
2016-05-22T01:57:53.627Z,959.51
2016-05-22T01:58:53.646Z,959.52
2016-05-22T01:59:53.852Z,959.49
2016-05-22T02:00:53.667Z,959.49
2016-05-22T02:01:53.794Z,959.49
2016-05-22T02:02:53.672Z,959.47
2016-05-22T02:03:53.690Z,959.47
2016-05-22T02:04:53.709Z,959.48
2016-05-22T02:05:53.711Z,959.47
2016-05-22T02:06:53.713Z,959.51
2016-05-22T02:07:53.733Z,959.49
2016-05-22T02:08:53.735Z,959.46
2016-05-22T02:09:53.801Z,959.49
2016-05-22T02:10:53.756Z,959.51
2016-05-22T02:11:53.759Z,959.52
2016-05-22T02:12:53.777Z,959.47
2016-05-22T02:13:53.796Z,959.46
2016-05-22T02:14:53.798Z,959.48
2016-05-22T02:15:53.957Z,959.48
2016-05-22T02:16:53.820Z,959.5
2016-05-22T02:17:53.822Z,959.47
2016-05-22T02:18:53.840Z,959.46
2016-05-22T02:19:53.843Z,959.47
2016-05-22T02:20:54.049Z,959.44
2016-05-22T02:21:53.911Z,959.41
2016-05-22T02:22:53.867Z,959.44
2016-05-22T02:23:53.884Z,959.4
2016-05-22T02:24:53.903Z,959.39
2016-05-22T02:25:53.890Z,959.38
2016-05-22T02:26:53.909Z,959.35
2016-05-22T02:27:53.911Z,959.3
2016-05-22T02:28:53.977Z,959.32
2016-05-22T02:29:54.183Z,959.31
2016-05-22T02:30:53.935Z,959.34
2016-05-22T02:31:54.110Z,959.3
2016-05-22T02:32:53.972Z,959.29
2016-05-22T02:33:53.975Z,959.26
2016-05-22T02:34:54.039Z,959.27
2016-05-22T02:35:53.996Z,959.29
2016-05-22T02:36:54.060Z,959.29
2016-05-22T02:37:54.313Z,959.26
2016-05-22T02:38:54.019Z,959.28
2016-05-22T02:39:54.038Z,959.26
2016-05-22T02:40:54.040Z,959.28
2016-05-22T02:41:54.308Z,959.26
2016-05-22T02:42:54.061Z,959.26
2016-05-22T02:43:54.063Z,959.28
2016-05-22T02:44:54.081Z,959.27
2016-05-22T02:45:54.101Z,959.27
2016-05-22T02:46:54.103Z,959.29
2016-05-22T02:47:54.106Z,959.24
2016-05-22T02:48:54.109Z,959.26
2016-05-22T02:49:54.126Z,959.2
2016-05-22T02:50:54.145Z,959.22
2016-05-22T02:51:54.164Z,959.21
2016-05-22T02:52:54.166Z,959.2
2016-05-22T02:53:54.169Z,959.19
2016-05-22T02:54:54.422Z,959.17
2016-05-22T02:55:54.189Z,959.17
2016-05-22T02:56:54.192Z,959.15
2016-05-22T02:57:54.195Z,959.14
2016-05-22T02:58:54.557Z,959.14
2016-05-22T02:59:54.216Z,959.1
2016-05-22T03:00:54.484Z,959.04
2016-05-22T03:01:54.237Z,959.05
2016-05-22T03:02:54.552Z,959.09
2016-05-22T03:03:54.257Z,959.05
2016-05-22T03:04:54.574Z,959.06
2016-05-22T03:05:54.279Z,959.07
2016-05-22T03:06:54.594Z,959.08
2016-05-22T03:07:54.347Z,959.09
2016-05-22T03:08:54.303Z,959.08
2016-05-22T03:09:54.321Z,959.06
2016-05-22T03:10:54.323Z,959.05
2016-05-22T03:11:54.482Z,959.04
2016-05-22T03:12:54.345Z,959.04
2016-05-22T03:13:54.348Z,959.02
2016-05-22T03:14:54.490Z,959.03
2016-05-22T03:15:54.431Z,959.05
2016-05-22T03:16:54.387Z,959.08
2016-05-22T03:17:54.498Z,959.07
2016-05-22T03:18:54.408Z,959.05
2016-05-22T03:19:54.426Z,959.03
2016-05-22T03:20:54.429Z,959.02
2016-05-22T03:21:54.431Z,959.01
2016-05-22T03:22:54.637Z,958.99
2016-05-22T03:23:54.453Z,959
2016-05-22T03:24:54.470Z,958.97
2016-05-22T03:25:54.473Z,958.98
2016-05-22T03:26:54.476Z,958.99
2016-05-22T03:27:54.588Z,958.98
2016-05-22T03:28:54.497Z,958.96
2016-05-22T03:29:54.532Z,958.96
2016-05-22T03:30:54.567Z,958.92
2016-05-22T03:31:54.601Z,958.87
2016-05-22T03:32:54.651Z,958.91
2016-05-22T03:33:54.685Z,958.9
2016-05-22T03:34:54.724Z,958.89
2016-05-22T03:35:54.738Z,958.88
2016-05-22T03:36:54.860Z,958.84
2016-05-22T03:37:54.828Z,958.86
2016-05-22T03:38:54.794Z,958.85
2016-05-22T03:39:54.821Z,958.84
2016-05-22T03:40:54.843Z,958.86
2016-05-22T03:41:54.834Z,958.84
2016-05-22T03:42:54.918Z,958.83
2016-05-22T03:43:54.879Z,958.88
2016-05-22T03:44:54.884Z,958.85
2016-05-22T03:45:54.889Z,958.85
2016-05-22T03:46:54.909Z,958.89
2016-05-22T03:47:54.913Z,958.88
2016-05-22T03:48:54.934Z,958.87
2016-05-22T03:49:54.936Z,958.87
2016-05-22T03:50:54.955Z,958.9
2016-05-22T03:51:54.958Z,958.91
2016-05-22T03:52:54.961Z,958.88
2016-05-22T03:53:54.980Z,958.86
2016-05-22T03:54:54.998Z,958.88
2016-05-22T03:55:55.001Z,958.88
2016-05-22T03:56:55.003Z,958.92
2016-05-22T03:57:55.022Z,958.92
2016-05-22T03:58:55.024Z,958.94
2016-05-22T03:59:55.027Z,958.89
2016-05-22T04:00:55.046Z,958.87
2016-05-22T04:01:55.049Z,958.91
2016-05-22T04:02:55.051Z,958.89
2016-05-22T04:03:55.069Z,958.93
2016-05-22T04:04:55.087Z,958.93
2016-05-22T04:05:55.090Z,958.97
2016-05-22T04:06:55.094Z,958.96
2016-05-22T04:07:55.112Z,958.95
2016-05-22T04:08:55.114Z,958.95
2016-05-22T04:09:55.132Z,958.98
2016-05-22T04:10:55.135Z,958.95
2016-05-22T04:11:55.138Z,958.95
2016-05-22T04:12:55.266Z,958.94
2016-05-22T04:13:55.159Z,958.95
2016-05-22T04:14:55.176Z,958.98
2016-05-22T04:15:55.195Z,958.98
2016-05-22T04:16:55.198Z,958.95
2016-05-22T04:17:55.201Z,958.93
2016-05-22T04:18:55.220Z,958.94
2016-05-22T04:19:55.223Z,958.92
2016-05-22T04:20:55.224Z,958.92
2016-05-22T04:21:55.243Z,958.91
2016-05-22T04:22:55.245Z,958.97
2016-05-22T04:23:55.264Z,958.96
2016-05-22T04:24:55.267Z,958.97
2016-05-22T04:25:55.286Z,958.97
2016-05-22T04:26:55.288Z,958.97
2016-05-22T04:27:55.291Z,958.95
2016-05-22T04:28:55.309Z,958.95
2016-05-22T04:29:55.311Z,958.95
2016-05-22T04:30:55.330Z,959
2016-05-22T04:31:55.332Z,958.96
2016-05-22T04:32:55.350Z,958.97
2016-05-22T04:33:55.369Z,958.96
2016-05-22T04:34:55.371Z,958.96
2016-05-22T04:35:55.374Z,958.95
2016-05-22T04:36:55.377Z,959.01
2016-05-22T04:37:55.396Z,958.95
2016-05-22T04:38:55.413Z,958.94
2016-05-22T04:39:55.416Z,958.94
2016-05-22T04:40:55.450Z,958.92
2016-05-22T04:41:55.437Z,958.92
2016-05-22T04:42:55.440Z,958.89
2016-05-22T04:43:55.459Z,958.91
2016-05-22T04:44:55.461Z,958.86
2016-05-22T04:45:55.479Z,958.89
2016-05-22T04:46:55.482Z,958.87
2016-05-22T04:47:55.484Z,958.87
2016-05-22T04:48:55.503Z,958.85
2016-05-22T04:49:55.506Z,958.85
2016-05-22T04:50:55.524Z,958.84
2016-05-22T04:51:55.526Z,958.84
2016-05-22T04:52:55.545Z,958.8
2016-05-22T04:53:55.547Z,958.78
2016-05-22T04:54:55.566Z,958.81
2016-05-22T04:55:55.569Z,958.79
2016-05-22T04:56:55.571Z,958.77
2016-05-22T04:57:55.589Z,958.74
2016-05-22T04:58:55.592Z,958.71
2016-05-22T04:59:55.595Z,958.75
2016-05-22T05:00:55.629Z,958.74
2016-05-22T05:01:55.616Z,958.74
2016-05-22T05:02:55.634Z,958.75
2016-05-22T05:03:55.637Z,958.74
2016-05-22T05:04:55.655Z,958.72
2016-05-22T05:05:55.658Z,958.7
2016-05-22T05:06:55.660Z,958.72
2016-05-22T05:07:55.679Z,958.72
2016-05-22T05:08:55.682Z,958.71
2016-05-22T05:09:55.699Z,958.69
2016-05-22T05:10:55.703Z,958.77
2016-05-22T05:11:55.705Z,958.73
2016-05-22T05:12:55.723Z,958.73
2016-05-22T05:13:55.742Z,958.73
2016-05-22T05:14:55.745Z,958.71
2016-05-22T05:15:55.747Z,958.68
2016-05-22T05:16:55.766Z,958.65
2016-05-22T05:17:55.768Z,958.66
2016-05-22T05:18:55.786Z,958.65
2016-05-22T05:19:55.789Z,958.66
2016-05-22T05:20:55.808Z,958.62
2016-05-22T05:21:55.811Z,958.63
2016-05-22T05:22:55.829Z,958.61
2016-05-22T05:23:55.832Z,958.6
2016-05-22T05:24:55.833Z,958.61
2016-05-22T05:25:55.852Z,958.58
2016-05-22T05:26:55.856Z,958.58
2016-05-22T05:27:55.873Z,958.6
2016-05-22T05:28:55.876Z,958.59
2016-05-22T05:29:55.879Z,958.6
2016-05-22T05:30:55.897Z,958.59
2016-05-22T05:31:55.899Z,958.57
2016-05-22T05:32:55.919Z,958.58
2016-05-22T05:33:55.921Z,958.59
2016-05-22T05:34:55.939Z,958.59
2016-05-22T05:35:55.942Z,958.57
2016-05-22T05:36:55.961Z,958.52
2016-05-22T05:37:55.963Z,958.54
2016-05-22T05:38:55.982Z,958.55
2016-05-22T05:39:55.984Z,958.55
2016-05-22T05:40:55.987Z,958.57
2016-05-22T05:41:56.005Z,958.54
2016-05-22T05:42:56.477Z,958.52
2016-05-22T05:43:56.026Z,958.53
2016-05-22T05:44:56.028Z,958.56
2016-05-22T05:45:56.046Z,958.5
2016-05-22T05:46:56.049Z,958.49
2016-05-22T05:47:56.067Z,958.5
2016-05-22T05:48:56.071Z,958.52
2016-05-22T05:49:56.089Z,958.53
2016-05-22T05:50:56.107Z,958.51
2016-05-22T05:51:56.109Z,958.53
2016-05-22T05:52:56.113Z,958.52
2016-05-22T05:53:56.115Z,958.49
2016-05-22T05:54:56.134Z,958.52
2016-05-22T05:55:56.136Z,958.56
2016-05-22T05:56:56.155Z,958.58
2016-05-22T05:57:56.158Z,958.56
2016-05-22T05:58:56.175Z,958.56
2016-05-22T05:59:56.178Z,958.57
2016-05-22T06:00:56.197Z,958.53
2016-05-22T06:01:56.214Z,958.51
2016-05-22T06:02:56.202Z,958.49
2016-05-22T06:03:56.219Z,958.52
2016-05-22T06:04:56.223Z,958.55
2016-05-22T06:05:56.241Z,958.56
2016-05-22T06:06:56.244Z,958.58
2016-05-22T06:07:56.263Z,958.6
2016-05-22T06:08:56.265Z,958.63
2016-05-22T06:09:56.268Z,958.62
2016-05-22T06:10:56.286Z,958.66
2016-05-22T06:11:56.288Z,958.68
2016-05-22T06:12:56.307Z,958.67
2016-05-22T06:13:56.310Z,958.67
2016-05-22T06:14:56.329Z,958.65
2016-05-22T06:15:56.331Z,958.67
2016-05-22T06:16:56.349Z,958.67
2016-05-22T06:17:56.352Z,958.66
2016-05-22T06:18:56.355Z,958.71
2016-05-22T06:19:56.373Z,958.66
2016-05-22T06:20:56.375Z,958.64
2016-05-22T06:21:56.393Z,958.61
2016-05-22T06:22:56.396Z,958.61
2016-05-22T06:23:56.415Z,958.59
2016-05-22T06:24:56.418Z,958.57
2016-05-22T06:25:56.436Z,958.57
2016-05-22T06:26:56.438Z,958.56
2016-05-22T06:27:56.473Z,958.55
2016-05-22T06:28:56.459Z,958.54
2016-05-22T06:29:56.478Z,958.58
2016-05-22T06:30:56.481Z,958.61
2016-05-22T06:31:56.484Z,958.58
2016-05-22T06:32:56.501Z,958.56
2016-05-22T06:33:56.504Z,958.56
2016-05-22T06:34:56.538Z,958.54
2016-05-22T06:35:56.525Z,958.57
2016-05-22T06:36:56.544Z,958.53
2016-05-22T06:37:56.546Z,958.51
2016-05-22T06:38:56.563Z,958.52
2016-05-22T06:39:56.582Z,958.52
2016-05-22T06:40:56.585Z,958.48
2016-05-22T06:41:56.588Z,958.46
2016-05-22T06:42:56.747Z,958.49
2016-05-22T06:43:56.610Z,958.43
2016-05-22T06:44:56.612Z,958.4
2016-05-22T06:45:56.629Z,958.39
2016-05-22T06:46:56.649Z,958.37
2016-05-22T06:47:56.651Z,958.39
2016-05-22T06:48:56.654Z,958.37
2016-05-22T06:49:56.673Z,958.34
2016-05-22T06:50:56.675Z,958.36
2016-05-22T06:51:56.692Z,958.4
2016-05-22T06:52:56.695Z,958.4
2016-05-22T06:53:56.698Z,958.37
2016-05-22T06:54:56.717Z,958.39
2016-05-22T06:55:56.720Z,958.35
2016-05-22T06:56:56.737Z,958.3
2016-05-22T06:57:57.240Z,958.26
2016-05-22T06:58:56.759Z,958.3
2016-05-22T06:59:56.761Z,958.22
2016-05-22T07:00:56.781Z,958.25
2016-05-22T07:01:56.783Z,958.23
2016-05-22T07:02:56.800Z,958.18
2016-05-22T07:03:56.803Z,958.18
2016-05-22T07:04:56.822Z,958.18
2016-05-22T07:05:56.824Z,958.17
2016-05-22T07:06:56.843Z,958.15
2016-05-22T07:07:56.846Z,958.17
2016-05-22T07:08:56.849Z,958.14
2016-05-22T07:09:56.866Z,958.17
2016-05-22T07:10:56.869Z,958.17
2016-05-22T07:11:56.888Z,958.18
2016-05-22T07:12:57.312Z,958.16
2016-05-22T07:13:56.908Z,958.13
2016-05-22T07:14:56.911Z,958.13
2016-05-22T07:15:56.913Z,958.12
2016-05-22T07:16:56.932Z,958.1
2016-05-22T07:17:56.951Z,958.13
2016-05-22T07:18:56.954Z,958.05
2016-05-22T07:19:56.956Z,958.09
2016-05-22T07:20:56.959Z,958.07
2016-05-22T07:21:56.977Z,958.1
2016-05-22T07:22:56.980Z,958.11
2016-05-22T07:23:56.998Z,958.12
2016-05-22T07:24:57.001Z,958.14
2016-05-22T07:25:57.020Z,958.12
2016-05-22T07:26:57.037Z,958.05
2016-05-22T07:27:57.040Z,958.06
2016-05-22T07:28:57.042Z,958.04
2016-05-22T07:29:57.061Z,958.09
2016-05-22T07:30:57.079Z,958.06
2016-05-22T07:31:57.082Z,958.04
2016-05-22T07:32:57.084Z,958.03
2016-05-22T07:33:57.102Z,957.99
2016-05-22T07:34:57.105Z,957.99
2016-05-22T07:35:57.109Z,957.99
2016-05-22T07:36:57.127Z,957.98
2016-05-22T07:37:57.130Z,957.98
2016-05-22T07:38:57.147Z,957.95
2016-05-22T07:39:57.150Z,957.92
2016-05-22T07:40:57.168Z,957.96
2016-05-22T07:41:57.171Z,957.95
2016-05-22T07:42:57.190Z,957.96
2016-05-22T07:43:57.193Z,957.98
2016-05-22T07:44:57.210Z,957.96
2016-05-22T07:45:57.213Z,957.97
2016-05-22T07:46:57.215Z,957.97
2016-05-22T07:47:57.234Z,957.93
2016-05-22T07:48:57.238Z,957.95
2016-05-22T07:49:57.255Z,957.94
2016-05-22T07:50:57.273Z,957.94
2016-05-22T07:51:57.276Z,957.9
2016-05-22T07:52:57.279Z,957.89
2016-05-22T07:53:57.297Z,957.89
2016-05-22T07:54:57.301Z,957.9
2016-05-22T07:55:57.318Z,957.83
2016-05-22T07:56:57.320Z,957.84
2016-05-22T07:57:57.996Z,957.81
2016-05-22T07:58:57.342Z,957.86
2016-05-22T07:59:57.344Z,957.88
2016-05-22T08:00:57.364Z,957.85
2016-05-22T08:01:57.382Z,957.84
2016-05-22T08:02:57.384Z,957.8
2016-05-22T08:03:57.402Z,957.78
2016-05-22T08:04:57.406Z,957.78
2016-05-22T08:05:57.408Z,957.8
2016-05-22T08:06:57.425Z,957.77
2016-05-22T08:07:57.428Z,957.75
2016-05-22T08:08:57.431Z,957.77
2016-05-22T08:09:57.450Z,957.77
2016-05-22T08:10:57.469Z,957.8
2016-05-22T08:11:57.471Z,957.81
2016-05-22T08:12:57.489Z,957.8
2016-05-22T08:13:57.491Z,957.77
2016-05-22T08:14:57.510Z,957.82
2016-05-22T08:15:57.512Z,957.79
2016-05-22T08:16:57.531Z,957.76
2016-05-22T08:17:57.534Z,957.78
2016-05-22T08:18:57.537Z,957.75
2016-05-22T08:19:57.554Z,957.78
2016-05-22T08:20:57.557Z,957.75
2016-05-22T08:21:57.576Z,957.72
2016-05-22T08:22:57.579Z,957.77
2016-05-22T08:23:57.581Z,957.74
2016-05-22T08:24:57.599Z,957.73
2016-05-22T08:25:57.618Z,957.72
2016-05-22T08:26:57.620Z,957.69
2016-05-22T08:27:57.639Z,957.68
2016-05-22T08:28:57.642Z,957.71
2016-05-22T08:29:57.660Z,957.7
2016-05-22T08:30:57.662Z,957.7
2016-05-22T08:31:57.665Z,957.73
2016-05-22T08:32:57.683Z,957.74
2016-05-22T08:33:57.687Z,957.68
2016-05-22T08:34:57.767Z,957.68
2016-05-22T08:35:57.708Z,957.72
2016-05-22T08:36:57.725Z,957.69
2016-05-22T08:37:57.728Z,957.65
2016-05-22T08:38:57.746Z,957.61
2016-05-22T08:39:57.750Z,957.58
2016-05-22T08:40:57.767Z,957.56
2016-05-22T08:41:57.770Z,957.56
2016-05-22T08:42:57.772Z,957.51
2016-05-22T08:43:57.791Z,957.51
2016-05-22T08:44:57.794Z,957.53
2016-05-22T08:45:57.813Z,957.54
2016-05-22T08:46:57.815Z,957.53
2016-05-22T08:47:57.833Z,957.51
2016-05-22T08:48:57.835Z,957.49
2016-05-22T08:49:57.854Z,957.48
2016-05-22T08:50:57.857Z,957.45
2016-05-22T08:51:57.875Z,957.48
2016-05-22T08:52:57.878Z,957.46
2016-05-22T08:53:57.896Z,957.46
2016-05-22T08:54:57.899Z,957.45
2016-05-22T08:55:57.917Z,957.41
2016-05-22T08:56:57.920Z,957.46
2016-05-22T08:57:57.938Z,957.41
2016-05-22T08:58:57.940Z,957.39
2016-05-22T08:59:57.959Z,957.39
2016-05-22T09:00:57.961Z,957.42
2016-05-22T09:01:57.980Z,957.4
2016-05-22T09:02:57.983Z,957.37
2016-05-22T09:03:57.986Z,957.37
2016-05-22T09:04:58.003Z,957.37
2016-05-22T09:05:58.006Z,957.37
2016-05-22T09:06:58.025Z,957.35
2016-05-22T09:07:58.044Z,957.35
2016-05-22T09:08:58.046Z,957.36
2016-05-22T09:09:58.049Z,957.31
2016-05-22T09:10:58.067Z,957.38
2016-05-22T09:11:58.069Z,957.37
2016-05-22T09:12:58.088Z,957.35
2016-05-22T09:13:58.091Z,957.33
2016-05-22T09:14:58.109Z,957.3
2016-05-22T09:15:58.111Z,957.33
2016-05-22T09:16:58.113Z,957.31
2016-05-22T09:17:58.132Z,957.3
2016-05-22T09:18:58.135Z,957.27
2016-05-22T09:19:58.154Z,957.31
2016-05-22T09:20:58.156Z,957.31
2016-05-22T09:21:58.174Z,957.34
2016-05-22T09:22:58.193Z,957.32
2016-05-22T09:23:58.196Z,957.31
2016-05-22T09:24:58.198Z,957.29
2016-05-22T09:25:58.217Z,957.33
2016-05-22T09:26:58.235Z,957.27
2016-05-22T09:27:58.237Z,957.31
2016-05-22T09:28:58.240Z,957.31
2016-05-22T09:29:58.259Z,957.28
2016-05-22T09:30:58.262Z,957.27
2016-05-22T09:31:58.280Z,957.3
2016-05-22T09:32:58.282Z,957.29
2016-05-22T09:33:58.284Z,957.26
2016-05-22T09:34:58.303Z,957.3
2016-05-22T09:35:58.322Z,957.24
2016-05-22T09:36:58.324Z,957.24
2016-05-22T09:37:58.342Z,957.28
2016-05-22T09:38:58.345Z,957.23
2016-05-22T09:39:58.364Z,957.25
2016-05-22T09:40:58.366Z,957.26
2016-05-22T09:41:58.369Z,957.25
2016-05-22T09:42:58.388Z,957.24
2016-05-22T09:43:58.390Z,957.21
2016-05-22T09:44:58.408Z,957.25
2016-05-22T09:45:58.411Z,957.17
2016-05-22T09:46:58.430Z,957.19
2016-05-22T09:47:58.432Z,957.14
2016-05-22T09:48:58.450Z,957.16
2016-05-22T09:49:58.453Z,957.11
2016-05-22T09:50:58.471Z,957.1
2016-05-22T09:51:58.474Z,957.11
2016-05-22T09:52:58.493Z,957.09
2016-05-22T09:53:58.496Z,957.09
2016-05-22T09:54:58.498Z,957.08
2016-05-22T09:55:58.516Z,957.08
2016-05-22T09:56:58.534Z,957.07
2016-05-22T09:57:59.131Z,957.06
2016-05-22T09:58:58.556Z,957.03
2016-05-22T09:59:58.558Z,957.08
2016-05-22T10:00:58.576Z,957.03
2016-05-22T10:01:58.579Z,957.01
2016-05-22T10:02:58.597Z,957.02
2016-05-22T10:03:58.600Z,957.01
2016-05-22T10:04:58.603Z,956.98
2016-05-22T10:05:58.621Z,956.95
2016-05-22T10:06:58.624Z,956.96
2016-05-22T10:07:58.642Z,956.92
2016-05-22T10:08:58.645Z,956.93
2016-05-22T10:09:58.647Z,956.93
2016-05-22T10:10:58.666Z,956.94
2016-05-22T10:11:58.684Z,956.9
2016-05-22T10:12:58.686Z,956.91
2016-05-22T10:13:58.705Z,956.89
2016-05-22T10:14:58.708Z,956.88
2016-05-22T10:15:58.726Z,956.85
2016-05-22T10:16:58.745Z,956.88
2016-05-22T10:17:58.746Z,956.83
2016-05-22T10:18:58.750Z,956.85
2016-05-22T10:19:58.768Z,956.78
2016-05-22T10:20:58.771Z,956.82
2016-05-22T10:21:58.789Z,956.8
2016-05-22T10:22:58.791Z,956.8
2016-05-22T10:23:58.810Z,956.77
2016-05-22T10:24:58.813Z,956.76
2016-05-22T10:25:58.831Z,956.72
2016-05-22T10:26:58.834Z,956.69
2016-05-22T10:27:58.852Z,956.69
2016-05-22T10:28:58.854Z,956.71
2016-05-22T10:29:58.873Z,956.67
2016-05-22T10:30:58.875Z,956.67
2016-05-22T10:31:58.879Z,956.67
2016-05-22T10:32:58.898Z,956.65
2016-05-22T10:33:58.900Z,956.65
2016-05-22T10:34:58.918Z,956.66
2016-05-22T10:35:58.952Z,956.66
2016-05-22T10:36:58.939Z,956.67
2016-05-22T10:37:58.957Z,956.62
2016-05-22T10:38:58.959Z,956.59
2016-05-22T10:39:58.962Z,956.62
2016-05-22T10:40:58.981Z,956.59
2016-05-22T10:41:58.984Z,956.54
2016-05-22T10:42:59.111Z,956.57
2016-05-22T10:43:59.005Z,956.53
2016-05-22T10:44:59.022Z,956.5
2016-05-22T10:45:59.026Z,956.54
2016-05-22T10:46:59.043Z,956.53
2016-05-22T10:47:59.046Z,956.52
2016-05-22T10:48:59.065Z,956.5
2016-05-22T10:49:59.083Z,956.49
2016-05-22T10:50:59.086Z,956.45
2016-05-22T10:51:59.088Z,956.46
2016-05-22T10:52:59.107Z,956.4
2016-05-22T10:53:59.125Z,956.4
2016-05-22T10:54:59.128Z,956.38
2016-05-22T10:55:59.131Z,956.36
2016-05-22T10:56:59.148Z,956.35
2016-05-22T10:57:59.167Z,956.32
2016-05-22T10:58:59.170Z,956.32
2016-05-22T10:59:59.188Z,956.36
2016-05-22T11:00:59.191Z,956.33
2016-05-22T11:01:59.193Z,956.29
2016-05-22T11:02:59.212Z,956.27
2016-05-22T11:03:59.215Z,956.24
2016-05-22T11:04:59.234Z,956.23
2016-05-22T11:05:59.236Z,956.22
2016-05-22T11:06:59.253Z,956.23
2016-05-22T11:07:59.256Z,956.19
2016-05-22T11:08:59.275Z,956.2
2016-05-22T11:09:59.277Z,956.23
2016-05-22T11:10:59.296Z,956.22
2016-05-22T11:11:59.314Z,956.22
2016-05-22T11:12:59.317Z,956.21
2016-05-22T11:13:59.319Z,956.17
2016-05-22T11:14:59.338Z,956.19
2016-05-22T11:15:59.356Z,956.11
2016-05-22T11:16:59.359Z,956.16
2016-05-22T11:17:59.377Z,956.18
2016-05-22T11:18:59.380Z,956.11
2016-05-22T11:19:59.398Z,956.11
2016-05-22T11:20:59.401Z,956.14
2016-05-22T11:21:59.404Z,956.12
2016-05-22T11:22:59.422Z,956.08
2016-05-22T11:23:59.425Z,956.1
2016-05-22T11:24:59.443Z,956.1
2016-05-22T11:25:59.446Z,956.05
2016-05-22T11:26:59.464Z,956.1
2016-05-22T11:27:59.466Z,956.03
2016-05-22T11:29:00.001Z,956.06
2016-05-22T11:29:59.503Z,956.03
2016-05-22T11:30:59.506Z,956.02
2016-05-22T11:31:59.509Z,956.06
2016-05-22T11:32:59.543Z,956.04
2016-05-22T11:33:59.546Z,955.99
2016-05-22T11:34:59.548Z,955.98
2016-05-22T11:35:59.567Z,955.99
2016-05-22T11:36:59.570Z,955.96
2016-05-22T11:37:59.587Z,955.93
2016-05-22T11:38:59.590Z,955.91
2016-05-22T11:39:59.608Z,955.96
2016-05-22T11:40:59.611Z,955.94
2016-05-22T11:41:59.629Z,955.94
2016-05-22T11:42:59.648Z,955.91
2016-05-22T11:43:59.650Z,955.89
2016-05-22T11:44:59.669Z,955.89
2016-05-22T11:45:59.672Z,955.88
2016-05-22T11:46:59.675Z,955.83
2016-05-22T11:47:59.692Z,955.82
2016-05-22T11:48:59.710Z,955.85
2016-05-22T11:49:59.714Z,955.81
2016-05-22T11:50:59.732Z,955.77
2016-05-22T11:51:59.750Z,955.73
2016-05-22T11:52:59.753Z,955.75
2016-05-22T11:53:59.755Z,955.75
2016-05-22T11:54:59.758Z,955.72
2016-05-22T11:55:59.777Z,955.68
2016-05-22T11:56:59.794Z,955.7
2016-05-22T11:57:59.813Z,955.72
2016-05-22T11:59:00.128Z,955.64
2016-05-22T11:59:59.818Z,955.66
2016-05-22T12:00:59.837Z,955.6
2016-05-22T12:01:59.855Z,955.62
2016-05-22T12:02:59.858Z,955.62
2016-05-22T12:03:59.876Z,955.62
2016-05-22T12:04:59.879Z,955.62
2016-05-22T12:05:59.897Z,955.59
2016-05-22T12:06:59.900Z,955.6
2016-05-22T12:07:59.903Z,955.66
2016-05-22T12:08:59.920Z,955.56
2016-05-22T12:09:59.939Z,955.62
2016-05-22T12:10:59.942Z,955.59
2016-05-22T12:11:59.960Z,955.55
2016-05-22T12:12:59.963Z,955.54
2016-05-22T12:14:00.074Z,955.57
2016-05-22T12:15:00.000Z,955.56
2016-05-22T12:16:00.002Z,955.51
2016-05-22T12:17:00.005Z,955.56
2016-05-22T12:18:00.023Z,955.54
2016-05-22T12:19:00.025Z,955.51
2016-05-22T12:20:00.044Z,955.5
2016-05-22T12:21:00.046Z,955.47
2016-05-22T12:22:00.065Z,955.44
2016-05-22T12:23:00.068Z,955.45
2016-05-22T12:24:00.086Z,955.39
2016-05-22T12:25:00.089Z,955.41
2016-05-22T12:26:00.108Z,955.42
2016-05-22T12:27:00.110Z,955.39
2016-05-22T12:28:00.127Z,955.39
2016-05-22T12:29:00.130Z,955.36
2016-05-22T12:30:00.149Z,955.29
2016-05-22T12:31:00.167Z,955.31